createdAt,value
2023-05-10T00:00:06.974Z,74.74
2023-05-10T00:02:46.488Z,75.26
2023-05-10T00:05:31.040Z,75.00
2023-05-10T00:08:10.305Z,74.87
2023-05-10T00:10:49.600Z,75.40
2023-05-10T00:13:29.612Z,75.91
2023-05-10T00:16:08.947Z,75.57
2023-05-10T00:18:48.509Z,75.67
2023-05-10T00:21:33.797Z,75.38
2023-05-10T00:24:13.832Z,75.43
2023-05-10T00:26:53.099Z,75.92
2023-05-10T00:29:32.438Z,75.57
2023-05-10T00:32:12.380Z,75.08
2023-05-10T00:34:51.730Z,75.32
2023-05-10T00:37:36.120Z,75.31
2023-05-10T00:40:16.504Z,74.99
2023-05-10T00:42:55.979Z,74.65
2023-05-10T00:45:35.349Z,73.94
2023-05-10T00:48:14.802Z,74.47
2023-05-10T00:50:54.236Z,73.78
2023-05-10T00:53:40.252Z,73.19
2023-05-10T00:56:19.838Z,73.26
2023-05-10T00:58:59.258Z,72.61
2023-05-10T01:01:39.411Z,73.13
2023-05-10T01:04:22.265Z,73.61
2023-05-10T01:07:01.695Z,73.72
2023-05-10T01:09:46.185Z,73.28
2023-05-10T01:12:25.735Z,73.01
2023-05-10T01:15:06.069Z,72.25
2023-05-10T01:17:48.906Z,72.25
2023-05-10T01:20:28.305Z,71.90
2023-05-10T01:23:33.893Z,71.96
2023-05-10T01:26:47.792Z,72.91
2023-05-10T01:30:19.286Z,72.67
2023-05-10T01:33:13.326Z,72.88
2023-05-10T01:36:01.438Z,73.39
2023-05-10T01:38:52.406Z,73.31
2023-05-10T01:41:41.209Z,73.19
2023-05-10T01:44:28.839Z,73.02
2023-05-10T01:47:15.629Z,73.98
2023-05-10T01:50:03.476Z,74.55
2023-05-10T01:52:50.996Z,74.26
2023-05-10T01:55:38.601Z,74.73
2023-05-10T01:58:23.994Z,74.55
2023-05-10T02:01:06.357Z,74.00
2023-05-10T02:03:48.617Z,74.68
2023-05-10T02:06:35.830Z,74.43
2023-05-10T02:09:17.323Z,74.54
2023-05-10T02:11:58.948Z,75.15
2023-05-10T02:14:42.427Z,74.64
2023-05-10T02:17:23.245Z,74.57
2023-05-10T02:20:06.067Z,74.51
2023-05-10T02:22:53.245Z,75.14
2023-05-10T02:25:34.415Z,74.96
2023-05-10T02:28:16.200Z,74.57
2023-05-10T02:30:56.751Z,74.40
2023-05-10T02:33:39.887Z,74.39
2023-05-10T02:36:22.095Z,74.54
2023-05-10T02:39:12.215Z,74.51
2023-05-10T02:41:54.997Z,74.43
2023-05-10T02:44:38.419Z,74.35
2023-05-10T02:47:17.872Z,74.44
2023-05-10T02:49:57.555Z,74.44
2023-05-10T02:52:48.812Z,74.08
2023-05-10T02:55:43.736Z,73.71
2023-05-10T02:58:23.351Z,73.71
2023-05-10T03:01:02.745Z,73.64
2023-05-10T03:03:42.110Z,73.76
2023-05-10T03:06:21.354Z,73.85
2023-05-10T03:09:00.865Z,73.30
2023-05-10T03:11:56.022Z,73.52
2023-05-10T03:14:51.139Z,73.24
2023-05-10T03:17:38.608Z,73.54
2023-05-10T03:20:21.182Z,73.96
2023-05-10T03:23:08.760Z,73.53
2023-05-10T03:25:51.121Z,73.25
2023-05-10T03:28:36.057Z,73.47
2023-05-10T03:31:16.153Z,72.97
2023-05-10T03:33:56.008Z,72.93
2023-05-10T03:36:35.345Z,73.39
2023-05-10T03:39:14.688Z,73.53
2023-05-10T03:41:53.963Z,73.72
2023-05-10T03:44:39.448Z,74.12
2023-05-10T03:47:18.833Z,73.65
2023-05-10T03:49:58.148Z,73.44
2023-05-10T03:52:37.428Z,72.99
2023-05-10T03:55:17.278Z,73.64
2023-05-10T03:57:56.876Z,73.47
2023-05-10T04:00:45.847Z,73.50
2023-05-10T04:03:25.423Z,73.62
2023-05-10T04:06:09.306Z,74.07
2023-05-10T04:08:48.638Z,73.77
2023-05-10T04:11:27.972Z,73.97
2023-05-10T04:14:09.218Z,73.59
2023-05-10T04:19:37.856Z,73.91
2023-05-10T04:22:17.342Z,73.82
2023-05-10T04:24:56.805Z,73.63
2023-05-10T04:27:36.096Z,73.00
2023-05-10T04:30:16.777Z,73.27
2023-05-10T04:33:01.452Z,73.82
2023-05-10T04:35:42.194Z,73.58
2023-05-10T04:38:21.470Z,73.34
2023-05-10T04:41:01.073Z,73.73
2023-05-10T04:43:40.478Z,73.88
2023-05-10T04:46:19.943Z,74.05
2023-05-10T04:49:04.368Z,73.54
2023-05-10T04:51:43.721Z,73.40
2023-05-10T04:54:23.055Z,73.16
2023-05-10T04:57:02.409Z,73.23
2023-05-10T04:59:44.727Z,72.95
2023-05-10T05:02:24.184Z,73.16
2023-05-10T05:05:09.535Z,73.19
2023-05-10T05:07:48.882Z,72.47
2023-05-10T05:10:28.282Z,72.21
2023-05-10T05:13:07.804Z,72.26
2023-05-10T05:15:47.188Z,72.26
2023-05-10T05:18:26.536Z,71.61
2023-05-10T05:21:11.212Z,70.99
2023-05-10T05:23:50.622Z,71.33
2023-05-10T05:26:30.000Z,71.50
2023-05-10T05:29:09.486Z,71.40
2023-05-10T05:31:48.895Z,71.30
2023-05-10T05:34:28.256Z,71.46
2023-05-10T05:37:12.710Z,72.32
2023-05-10T05:39:52.549Z,72.70
2023-05-10T05:42:31.894Z,72.02
2023-05-10T05:45:15.155Z,72.05
2023-05-10T05:47:54.694Z,71.76
2023-05-10T05:50:34.062Z,71.91
2023-05-10T05:53:18.599Z,72.01
2023-05-10T05:56:01.541Z,70.93
2023-05-10T05:58:40.865Z,70.50
2023-05-10T06:01:20.225Z,70.96
2023-05-10T06:03:59.770Z,71.84
2023-05-10T06:06:39.645Z,70.38
2023-05-10T06:09:25.977Z,70.62
2023-05-10T06:12:05.569Z,70.89
2023-05-10T06:14:44.867Z,70.51
2023-05-10T06:17:24.464Z,70.92
2023-05-10T06:20:03.820Z,71.38
2023-05-10T06:22:43.166Z,70.52
2023-05-10T06:25:27.583Z,70.49
2023-05-10T06:28:06.893Z,69.80
2023-05-10T06:30:46.724Z,69.42
2023-05-10T06:33:26.005Z,69.21
2023-05-10T06:36:05.377Z,70.06
2023-05-10T06:38:44.689Z,69.86
2023-05-10T06:41:29.199Z,69.94
2023-05-10T06:44:08.485Z,69.22
2023-05-10T06:46:47.902Z,68.94
2023-05-10T06:49:27.252Z,68.65
2023-05-10T06:52:06.649Z,68.94
2023-05-10T06:54:46.409Z,68.75
2023-05-10T06:57:32.228Z,68.32
2023-05-10T07:00:13.318Z,69.10
2023-05-10T07:02:53.297Z,68.32
2023-05-10T07:05:32.824Z,67.96
2023-05-10T07:08:12.628Z,67.53
2023-05-10T07:10:51.899Z,67.74
2023-05-10T07:13:36.331Z,67.41
2023-05-10T07:16:15.798Z,67.46
2023-05-10T07:18:55.790Z,66.71
2023-05-10T07:21:35.702Z,66.27
2023-05-10T07:24:15.208Z,65.31
2023-05-10T07:26:54.679Z,65.02
2023-05-10T07:29:39.553Z,64.82
2023-05-10T07:32:19.034Z,63.90
2023-05-10T07:34:58.486Z,64.03
2023-05-10T07:37:38.167Z,63.96
2023-05-10T07:40:18.377Z,64.44
2023-05-10T07:42:57.859Z,64.54
2023-05-10T07:45:42.564Z,63.03
2023-05-10T07:48:22.046Z,63.20
2023-05-10T07:51:01.341Z,63.96
2023-05-10T07:53:40.694Z,64.45
2023-05-10T07:56:31.785Z,64.59
2023-05-10T07:59:12.888Z,64.13
2023-05-10T08:01:58.240Z,64.03
2023-05-10T08:04:37.623Z,64.79
2023-05-10T08:07:17.046Z,65.13
2023-05-10T08:09:56.336Z,65.47
2023-05-10T08:12:35.729Z,64.74
2023-05-10T08:15:16.773Z,63.29
2023-05-10T08:18:01.372Z,62.19
2023-05-10T08:20:40.741Z,62.28
2023-05-10T08:23:21.061Z,61.96
2023-05-10T08:26:00.344Z,62.23
2023-05-10T08:28:39.769Z,62.37
2023-05-10T08:31:20.250Z,61.97
2023-05-10T08:34:04.665Z,62.11
2023-05-10T08:36:44.043Z,61.78
2023-05-10T08:39:30.492Z,62.72
2023-05-10T08:42:12.845Z,61.71
2023-05-10T08:44:53.292Z,61.72
2023-05-10T08:47:34.039Z,62.35
2023-05-10T08:50:20.006Z,61.79
2023-05-10T08:53:03.909Z,61.23
2023-05-10T08:55:44.882Z,60.94
2023-05-10T08:58:24.215Z,61.01
2023-05-10T09:01:05.386Z,61.87
2023-05-10T09:03:47.510Z,61.18
2023-05-10T09:06:34.382Z,59.71
2023-05-10T09:09:17.121Z,60.28
2023-05-10T09:11:57.171Z,60.48
2023-05-10T09:14:37.723Z,61.19
2023-05-10T09:17:18.708Z,59.40
2023-05-10T09:19:58.134Z,58.73
2023-05-10T09:22:43.313Z,59.05
2023-05-10T09:25:24.924Z,58.15
2023-05-10T09:28:04.252Z,58.01
2023-05-10T09:30:45.211Z,58.57
2023-05-10T09:33:26.534Z,58.59
2023-05-10T09:36:15.598Z,58.15
2023-05-10T09:39:00.922Z,58.77
2023-05-10T09:41:41.748Z,59.29
2023-05-10T09:44:26.275Z,58.26
2023-05-10T09:47:05.592Z,57.09
2023-05-10T09:49:44.885Z,57.70
2023-05-10T09:52:24.190Z,57.82
2023-05-10T09:55:08.621Z,57.67
2023-05-10T09:57:48.388Z,57.64
2023-05-10T10:00:28.471Z,57.66
2023-05-10T10:03:09.007Z,57.67
2023-05-10T10:05:49.924Z,58.47
2023-05-10T10:08:29.461Z,57.37
2023-05-10T10:11:13.979Z,56.80
2023-05-10T10:13:53.372Z,56.88
2023-05-10T10:16:33.515Z,57.05
2023-05-10T10:19:14.610Z,56.34
2023-05-10T10:21:53.900Z,56.65
2023-05-10T10:24:33.196Z,56.06
2023-05-10T10:27:34.930Z,56.23
2023-05-10T10:30:29.014Z,56.55
2023-05-10T10:33:28.768Z,56.72
2023-05-10T10:36:11.704Z,56.30
2023-05-10T10:39:07.296Z,56.91
2023-05-10T10:41:48.564Z,56.79
2023-05-10T10:44:49.111Z,56.21
2023-05-10T10:47:39.431Z,56.38
2023-05-10T10:50:19.214Z,56.23
2023-05-10T10:52:59.370Z,55.23
2023-05-10T10:55:38.678Z,53.24
2023-05-10T10:58:18.037Z,53.14
2023-05-10T11:01:18.981Z,52.98
2023-05-10T11:04:26.302Z,53.35
2023-05-10T11:07:27.172Z,51.69
2023-05-10T11:10:12.888Z,51.23
2023-05-10T11:13:03.017Z,51.56
2023-05-10T11:15:44.129Z,51.71
2023-05-10T11:18:33.690Z,52.08
2023-05-10T11:21:13.169Z,52.37
2023-05-10T11:24:00.920Z,53.56
2023-05-10T11:26:42.671Z,54.40
2023-05-10T11:29:22.391Z,54.85
2023-05-10T11:32:10.268Z,53.70
2023-05-10T11:34:56.075Z,53.38
2023-05-10T11:37:37.630Z,53.36
2023-05-10T11:40:17.972Z,53.00
2023-05-10T11:42:57.485Z,51.97
2023-05-10T11:45:37.108Z,52.45
2023-05-10T11:48:16.548Z,54.70
2023-05-10T11:51:01.044Z,55.84
2023-05-10T11:53:41.370Z,57.01
2023-05-10T11:56:20.770Z,58.04
2023-05-10T11:59:04.794Z,59.48
2023-05-10T12:01:45.383Z,59.54
2023-05-10T12:04:25.136Z,60.15
2023-05-10T12:07:09.851Z,60.17
2023-05-10T12:09:51.458Z,60.14
2023-05-10T12:12:30.851Z,60.03
2023-05-10T12:15:10.818Z,60.13
2023-05-10T12:17:52.582Z,60.39
2023-05-10T12:20:35.684Z,61.47
2023-05-10T12:23:22.423Z,60.56
2023-05-10T12:26:02.998Z,59.91
2023-05-10T12:28:42.570Z,59.78
2023-05-10T12:31:21.936Z,60.05
2023-05-10T12:34:01.243Z,59.42
2023-05-10T12:36:40.554Z,57.67
2023-05-10T12:39:25.302Z,57.34
2023-05-10T12:42:05.043Z,58.21
2023-05-10T12:44:44.715Z,59.66
2023-05-10T12:47:24.063Z,59.47
2023-05-10T12:50:03.449Z,59.50
2023-05-10T12:52:43.025Z,59.89
2023-05-10T12:55:27.423Z,59.37
2023-05-10T12:58:06.959Z,57.25
2023-05-10T13:00:46.479Z,57.30
2023-05-10T13:03:26.010Z,58.59
2023-05-10T13:06:05.402Z,58.18
2023-05-10T13:08:44.735Z,58.89
2023-05-10T13:11:29.345Z,59.04
2023-05-10T13:14:08.600Z,58.53
2023-05-10T13:16:47.942Z,59.07
2023-05-10T13:19:27.537Z,58.79
2023-05-10T13:22:07.034Z,59.38
2023-05-10T13:24:46.355Z,59.65
2023-05-10T13:27:30.963Z,59.71
2023-05-10T13:30:10.625Z,60.17
2023-05-10T13:32:49.967Z,59.59
2023-05-10T13:35:29.777Z,59.05
2023-05-10T13:38:10.136Z,58.87
2023-05-10T13:40:49.411Z,58.48
2023-05-10T13:43:33.821Z,58.73
2023-05-10T13:46:13.236Z,59.27
2023-05-10T13:48:56.042Z,59.20
2023-05-10T13:51:35.542Z,60.06
2023-05-10T13:54:14.877Z,59.24
2023-05-10T13:56:54.628Z,58.12
2023-05-10T13:59:39.674Z,56.49
2023-05-10T14:02:19.435Z,55.84
2023-05-10T14:04:58.781Z,55.37
2023-05-10T14:07:38.108Z,54.96
2023-05-10T14:10:18.127Z,55.06
2023-05-10T14:12:58.784Z,53.91
2023-05-10T14:15:43.232Z,52.57
2023-05-10T14:18:22.829Z,52.81
2023-05-10T14:21:02.443Z,53.02
2023-05-10T14:23:41.818Z,52.19
2023-05-10T14:26:21.152Z,53.22
2023-05-10T14:29:01.065Z,52.62
2023-05-10T14:31:45.529Z,52.66
2023-05-10T14:34:24.883Z,50.51
2023-05-10T14:37:04.366Z,49.58
2023-05-10T14:39:44.628Z,49.43
2023-05-10T14:42:24.023Z,46.34
2023-05-10T14:45:03.412Z,45.52
2023-05-10T14:47:47.854Z,46.03
2023-05-10T14:50:36.422Z,46.54
2023-05-10T14:53:16.500Z,45.99
2023-05-10T14:55:55.771Z,46.17
2023-05-10T14:58:35.446Z,45.43
2023-05-10T15:01:14.872Z,46.06
2023-05-10T15:03:59.724Z,46.55
2023-05-10T15:06:40.453Z,46.35
2023-05-10T15:09:19.752Z,47.22
2023-05-10T15:11:59.194Z,47.08
2023-05-10T15:14:38.928Z,48.02
2023-05-10T15:17:18.729Z,48.15
2023-05-10T15:20:04.741Z,48.31
2023-05-10T15:22:44.152Z,48.72
2023-05-10T15:25:23.461Z,49.20
2023-05-10T15:28:02.901Z,49.29
2023-05-10T15:30:42.238Z,49.60
2023-05-10T15:33:21.532Z,51.14
2023-05-10T15:36:06.391Z,50.70
2023-05-10T15:38:45.716Z,50.53
2023-05-10T15:41:25.017Z,50.89
2023-05-10T15:44:04.348Z,50.90
2023-05-10T15:46:43.675Z,50.87
2023-05-10T15:49:23.076Z,50.93
2023-05-10T15:52:07.630Z,50.97
2023-05-10T15:54:47.514Z,51.60
2023-05-10T15:57:26.768Z,51.64
2023-05-10T16:00:06.763Z,51.80
2023-05-10T16:02:46.380Z,52.11
2023-05-10T16:05:26.001Z,52.38
2023-05-10T16:08:10.386Z,52.64
2023-05-10T16:10:49.736Z,52.86
2023-05-10T16:13:29.115Z,52.89
2023-05-10T16:16:09.947Z,53.72
2023-05-10T16:18:49.565Z,53.94
2023-05-10T16:21:28.984Z,53.40
2023-05-10T16:24:13.846Z,53.63
2023-05-10T16:26:53.553Z,53.30
2023-05-10T16:29:33.242Z,53.01
2023-05-10T16:32:13.059Z,52.85
2023-05-10T16:34:52.308Z,52.47
2023-05-10T16:37:31.626Z,52.27
2023-05-10T16:40:17.487Z,52.37
2023-05-10T16:42:56.905Z,52.68
2023-05-10T16:45:38.764Z,52.18
2023-05-10T16:48:18.281Z,52.03
2023-05-10T16:50:57.632Z,51.56
2023-05-10T16:53:37.450Z,50.84
2023-05-10T16:56:23.077Z,50.72
2023-05-10T16:59:02.501Z,50.78
2023-05-10T17:01:41.901Z,50.74
2023-05-10T17:04:21.336Z,50.31
2023-05-10T17:07:00.709Z,51.99
2023-05-10T17:09:40.003Z,50.19
2023-05-10T17:12:24.386Z,50.02
2023-05-10T17:15:03.835Z,48.57
2023-05-10T17:17:43.219Z,48.12
2023-05-10T17:20:22.688Z,49.05
2023-05-10T17:23:03.851Z,48.45
2023-05-10T17:25:43.437Z,47.46
2023-05-10T17:28:28.006Z,48.09
2023-05-10T17:31:07.689Z,49.64
2023-05-10T17:33:47.016Z,48.14
2023-05-10T17:36:26.671Z,47.42
2023-05-10T17:39:05.965Z,48.22
2023-05-10T17:41:45.285Z,48.32
2023-05-10T17:44:29.691Z,48.01
2023-05-10T17:47:08.976Z,48.07
2023-05-10T17:49:48.275Z,48.55
2023-05-10T17:52:27.529Z,48.79
2023-05-10T17:55:07.103Z,48.92
2023-05-10T17:57:46.454Z,48.57
2023-05-10T18:00:31.065Z,48.50
2023-05-10T18:03:10.602Z,48.14
2023-05-10T18:05:50.119Z,48.75
2023-05-10T18:08:31.675Z,48.64
2023-05-10T18:11:10.962Z,49.36
2023-05-10T18:13:50.273Z,49.98
2023-05-10T18:16:34.665Z,50.35
2023-05-10T18:19:13.970Z,50.98
2023-05-10T18:21:53.262Z,51.44
2023-05-10T18:27:16.291Z,52.68
2023-05-10T18:29:55.581Z,52.67
2023-05-10T18:32:40.791Z,53.55
2023-05-10T18:35:20.499Z,54.26
2023-05-10T18:38:00.377Z,55.38
2023-05-10T18:40:39.892Z,56.38
2023-05-10T18:43:19.208Z,57.62
2023-05-10T18:45:58.580Z,57.31
2023-05-10T18:48:42.958Z,58.42
2023-05-10T18:51:23.395Z,58.35
2023-05-10T18:54:02.699Z,58.42
2023-05-10T18:56:45.675Z,59.20
2023-05-10T18:59:24.981Z,59.63
2023-05-10T19:02:04.300Z,59.37
2023-05-10T19:04:49.323Z,59.57
2023-05-10T19:07:28.635Z,60.28
2023-05-10T19:10:07.916Z,60.39
2023-05-10T19:12:47.713Z,60.42
2023-05-10T19:15:27.324Z,60.90
2023-05-10T19:18:07.995Z,61.04
2023-05-10T19:20:52.701Z,60.71
2023-05-10T19:23:32.167Z,61.32
2023-05-10T19:26:12.336Z,60.54
2023-05-10T19:28:51.943Z,60.90
2023-05-10T19:31:31.678Z,60.85
2023-05-10T19:34:11.076Z,61.04
2023-05-10T19:36:56.179Z,61.46
2023-05-10T19:39:35.492Z,60.69
2023-05-10T19:42:14.770Z,61.02
2023-05-10T19:44:54.116Z,60.78
2023-05-10T19:47:33.941Z,61.05
2023-05-10T19:50:17.446Z,61.90
2023-05-10T19:53:01.973Z,61.81
2023-05-10T19:55:41.547Z,62.01
2023-05-10T19:58:20.936Z,62.50
2023-05-10T20:01:00.304Z,62.97
2023-05-10T20:03:41.795Z,63.12
2023-05-10T20:06:21.135Z,63.56
2023-05-10T20:09:06.814Z,63.87
2023-05-10T20:11:46.110Z,64.22
2023-05-10T20:14:25.426Z,64.65
2023-05-10T20:17:04.930Z,64.70
2023-05-10T20:19:44.451Z,64.27
2023-05-10T20:22:23.746Z,64.36
2023-05-10T20:25:08.132Z,64.48
2023-05-10T20:27:47.726Z,64.59
2023-05-10T20:30:29.105Z,64.64
2023-05-10T20:33:09.576Z,64.87
2023-05-10T20:35:49.316Z,65.38
2023-05-10T20:38:28.627Z,65.24
2023-05-10T20:41:13.406Z,65.18
2023-05-10T20:43:52.749Z,64.92
2023-05-10T20:46:32.225Z,65.23
2023-05-10T20:49:11.551Z,65.68
2023-05-10T20:51:50.952Z,65.61
2023-05-10T20:54:30.695Z,65.33
2023-05-10T20:57:15.689Z,65.54
2023-05-10T20:59:56.568Z,65.27
2023-05-10T21:02:35.919Z,65.56
2023-05-10T21:05:15.879Z,65.70
2023-05-10T21:07:55.758Z,66.20
2023-05-10T21:10:35.147Z,66.71
2023-05-10T21:13:19.577Z,67.26
2023-05-10T21:15:58.928Z,67.79
2023-05-10T21:18:38.285Z,68.06
2023-05-10T21:21:17.612Z,68.72
2023-05-10T21:23:56.937Z,68.81
2023-05-10T21:26:36.281Z,68.70
2023-05-10T21:29:20.606Z,68.18
2023-05-10T21:31:59.995Z,68.29
2023-05-10T21:34:39.299Z,68.03
2023-05-10T21:37:18.662Z,67.81
2023-05-10T21:39:57.993Z,67.83
2023-05-10T21:42:37.912Z,67.82
2023-05-10T21:45:22.562Z,67.98
2023-05-10T21:48:01.937Z,67.65
2023-05-10T21:50:41.289Z,67.83
2023-05-10T21:53:20.792Z,67.95
2023-05-10T21:56:00.141Z,67.73
2023-05-10T21:58:39.465Z,67.52
2023-05-10T22:01:23.922Z,67.69
2023-05-10T22:04:03.306Z,67.93
2023-05-10T22:06:42.850Z,68.65
2023-05-10T22:09:22.147Z,68.93
2023-05-10T22:12:01.561Z,69.37
2023-05-10T22:14:40.921Z,69.79
2023-05-10T22:17:25.514Z,69.57
2023-05-10T22:20:04.983Z,69.21
2023-05-10T22:22:44.246Z,69.09
2023-05-10T22:25:23.602Z,69.22
2023-05-10T22:28:03.015Z,69.21
2023-05-10T22:30:42.927Z,69.07
2023-05-10T22:33:27.451Z,69.06
2023-05-10T22:36:06.813Z,69.17
2023-05-10T22:38:46.087Z,69.12
2023-05-10T22:41:25.493Z,68.83
2023-05-10T22:44:06.156Z,69.19
2023-05-10T22:46:45.971Z,69.24
2023-05-10T22:49:30.402Z,68.96
2023-05-10T22:52:09.867Z,69.16
2023-05-10T22:54:49.275Z,69.63
2023-05-10T22:57:28.704Z,69.87
2023-05-10T23:00:08.065Z,70.05
2023-05-10T23:02:47.530Z,70.28
2023-05-10T23:05:31.923Z,70.42
2023-05-10T23:08:11.377Z,70.40
2023-05-10T23:10:50.992Z,70.31
2023-05-10T23:13:30.459Z,70.66
2023-05-10T23:16:12.961Z,71.06
2023-05-10T23:18:52.339Z,71.49
2023-05-10T23:21:36.785Z,71.64
2023-05-10T23:24:16.249Z,71.93
2023-05-10T23:26:55.592Z,72.01
2023-05-10T23:29:35.920Z,72.14
2023-05-10T23:32:15.290Z,71.97
2023-05-10T23:34:54.589Z,72.06
2023-05-10T23:37:38.984Z,72.18
2023-05-10T23:40:19.059Z,71.83
2023-05-10T23:42:58.685Z,72.16
2023-05-10T23:45:38.049Z,72.21
2023-05-10T23:48:17.446Z,71.79
2023-05-10T23:50:57.224Z,71.82
2023-05-10T23:53:41.811Z,72.10
2023-05-10T23:56:21.118Z,72.19
2023-05-10T23:59:00.449Z,72.05
